Terminal Aerodrome Forecast
Issued by NWS Quad Cities IA IL

Home | Current Version | Previous Version | Graphics & Text | Print | Product List | Glossary On
Versions: 1 2 3 4 5 6 7 8 9 10 11 12 13 14 15 16 17 18 19
114
FTUS43 KDVN 280520
TAFDBQ
TAF
KDBQ 280520Z 2806/2906 34006KT P6SM BKN100 OVC200
     FM280700 32008KT P6SM SCT040 BKN060
     FM280900 33010KT P6SM VCSH BKN035
     FM281300 34010G16KT P6SM OVC025
     FM281700 34012G18KT P6SM OVC035=

USA.gov is the U.S. government's official web portal to all federal, state and local government web resources and services.